sensor_id;sensor_type;location;lat;lon;timestamp;temperature;humidity
65836;SHT30;52595;51.608;7.216;2023-06-22T00:01:27;20.67;76.19
65836;SHT30;52595;51.608;7.216;2023-06-22T00:03:52;20.61;76.46
65836;SHT30;52595;51.608;7.216;2023-06-22T00:06:18;20.52;76.71
65836;SHT30;52595;51.608;7.216;2023-06-22T00:08:43;20.49;77.05
65836;SHT30;52595;51.608;7.216;2023-06-22T00:11:09;20.52;77.06
65836;SHT30;52595;51.608;7.216;2023-06-22T00:13:34;20.48;77.31
65836;SHT30;52595;51.608;7.216;2023-06-22T00:16:00;20.47;77.38
65836;SHT30;52595;51.608;7.216;2023-06-22T00:18:25;20.47;77.43
65836;SHT30;52595;51.608;7.216;2023-06-22T00:20:54;20.45;77.68
65836;SHT30;52595;51.608;7.216;2023-06-22T00:23:23;20.43;77.73
65836;SHT30;52595;51.608;7.216;2023-06-22T00:25:49;20.40;78.18
65836;SHT30;52595;51.608;7.216;2023-06-22T00:28:14;20.33;78.33
65836;SHT30;52595;51.608;7.216;2023-06-22T00:30:40;20.24;78.64
65836;SHT30;52595;51.608;7.216;2023-06-22T00:33:05;20.24;78.99
65836;SHT30;52595;51.608;7.216;2023-06-22T00:35:33;20.20;79.13
65836;SHT30;52595;51.608;7.216;2023-06-22T00:38:00;20.21;79.41
65836;SHT30;52595;51.608;7.216;2023-06-22T00:40:29;20.14;79.44
65836;SHT30;52595;51.608;7.216;2023-06-22T00:42:55;20.16;79.54
65836;SHT30;52595;51.608;7.216;2023-06-22T00:45:21;20.21;79.43
65836;SHT30;52595;51.608;7.216;2023-06-22T00:47:49;20.25;79.35
65836;SHT30;52595;51.608;7.216;2023-06-22T00:50:19;20.21;79.48
65836;SHT30;52595;51.608;7.216;2023-06-22T00:52:53;20.18;79.65
65836;SHT30;52595;51.608;7.216;2023-06-22T00:55:22;20.16;79.72
65836;SHT30;52595;51.608;7.216;2023-06-22T00:57:47;20.14;79.98
65836;SHT30;52595;51.608;7.216;2023-06-22T01:00:14;20.13;79.96
65836;SHT30;52595;51.608;7.216;2023-06-22T01:02:42;20.13;80.27
65836;SHT30;52595;51.608;7.216;2023-06-22T01:05:09;20.03;80.40
65836;SHT30;52595;51.608;7.216;2023-06-22T01:10:11;19.91;80.81
65836;SHT30;52595;51.608;7.216;2023-06-22T01:12:44;19.87;80.92
65836;SHT30;52595;51.608;7.216;2023-06-22T01:15:16;19.87;81.22
65836;SHT30;52595;51.608;7.216;2023-06-22T01:17:45;19.84;81.30
65836;SHT30;52595;51.608;7.216;2023-06-22T01:20:15;19.86;81.45
65836;SHT30;52595;51.608;7.216;2023-06-22T01:25:20;19.84;81.53
65836;SHT30;52595;51.608;7.216;2023-06-22T01:27:56;19.89;81.41
65836;SHT30;52595;51.608;7.216;2023-06-22T01:30:27;19.87;81.50
65836;SHT30;52595;51.608;7.216;2023-06-22T01:32:55;19.83;81.74
65836;SHT30;52595;51.608;7.216;2023-06-22T01:35:22;19.77;81.66
65836;SHT30;52595;51.608;7.216;2023-06-22T01:37:49;19.69;81.95
65836;SHT30;52595;51.608;7.216;2023-06-22T01:40:15;19.77;82.17
65836;SHT30;52595;51.608;7.216;2023-06-22T01:42:41;19.67;82.20
65836;SHT30;52595;51.608;7.216;2023-06-22T01:45:10;19.62;82.32
65836;SHT30;52595;51.608;7.216;2023-06-22T01:47:36;19.67;82.34
65836;SHT30;52595;51.608;7.216;2023-06-22T01:50:02;19.60;82.42
65836;SHT30;52595;51.608;7.216;2023-06-22T01:52:27;19.63;82.69
65836;SHT30;52595;51.608;7.216;2023-06-22T01:54:52;19.55;82.72
65836;SHT30;52595;51.608;7.216;2023-06-22T01:57:18;19.52;83.16
65836;SHT30;52595;51.608;7.216;2023-06-22T02:00:03;19.50;83.06
65836;SHT30;52595;51.608;7.216;2023-06-22T02:02:36;19.48;83.12
65836;SHT30;52595;51.608;7.216;2023-06-22T02:05:07;19.43;83.50
65836;SHT30;52595;51.608;7.216;2023-06-22T02:07:41;19.46;83.60
65836;SHT30;52595;51.608;7.216;2023-06-22T02:10:07;19.50;83.47
65836;SHT30;52595;51.608;7.216;2023-06-22T02:12:35;19.49;83.41
65836;SHT30;52595;51.608;7.216;2023-06-22T02:15:01;19.48;83.61
65836;SHT30;52595;51.608;7.216;2023-06-22T02:17:27;19.43;83.87
65836;SHT30;52595;51.608;7.216;2023-06-22T02:19:52;19.33;84.11
65836;SHT30;52595;51.608;7.216;2023-06-22T02:22:18;19.32;84.24
65836;SHT30;52595;51.608;7.216;2023-06-22T02:24:43;19.28;84.27
65836;SHT30;52595;51.608;7.216;2023-06-22T02:27:09;19.29;84.34
65836;SHT30;52595;51.608;7.216;2023-06-22T02:29:35;19.29;84.34
65836;SHT30;52595;51.608;7.216;2023-06-22T02:32:01;19.25;84.53
65836;SHT30;52595;51.608;7.216;2023-06-22T02:34:26;19.26;84.53
65836;SHT30;52595;51.608;7.216;2023-06-22T02:36:51;19.22;84.66
65836;SHT30;52595;51.608;7.216;2023-06-22T02:39:21;19.20;84.85
65836;SHT30;52595;51.608;7.216;2023-06-22T02:41:48;19.19;84.87
65836;SHT30;52595;51.608;7.216;2023-06-22T02:44:13;19.18;84.99
65836;SHT30;52595;51.608;7.216;2023-06-22T02:46:39;19.18;84.99
65836;SHT30;52595;51.608;7.216;2023-06-22T02:49:04;19.15;85.10
65836;SHT30;52595;51.608;7.216;2023-06-22T02:51:32;19.12;85.20
65836;SHT30;52595;51.608;7.216;2023-06-22T02:53:59;19.09;85.48
65836;SHT30;52595;51.608;7.216;2023-06-22T02:56:24;19.05;85.55
65836;SHT30;52595;51.608;7.216;2023-06-22T02:58:50;19.01;85.86
65836;SHT30;52595;51.608;7.216;2023-06-22T03:01:15;19.01;85.92
65836;SHT30;52595;51.608;7.216;2023-06-22T03:03:40;18.96;85.92
65836;SHT30;52595;51.608;7.216;2023-06-22T03:06:06;18.95;85.94
65836;SHT30;52595;51.608;7.216;2023-06-22T03:08:31;18.94;86.08
65836;SHT30;52595;51.608;7.216;2023-06-22T03:10:56;18.95;86.24
65836;SHT30;52595;51.608;7.216;2023-06-22T03:13:22;18.94;86.15
65836;SHT30;52595;51.608;7.216;2023-06-22T03:15:48;18.91;86.26
65836;SHT30;52595;51.608;7.216;2023-06-22T03:18:13;18.85;86.41
65836;SHT30;52595;51.608;7.216;2023-06-22T03:20:39;18.83;86.63
65836;SHT30;52595;51.608;7.216;2023-06-22T03:23:04;18.78;86.66
65836;SHT30;52595;51.608;7.216;2023-06-22T03:25:30;18.74;86.96
65836;SHT30;52595;51.608;7.216;2023-06-22T03:27:55;18.77;86.80
65836;SHT30;52595;51.608;7.216;2023-06-22T03:30:21;18.74;86.91
65836;SHT30;52595;51.608;7.216;2023-06-22T03:32:46;18.75;86.80
65836;SHT30;52595;51.608;7.216;2023-06-22T03:35:12;18.77;86.96
65836;SHT30;52595;51.608;7.216;2023-06-22T03:37:39;18.72;86.88
65836;SHT30;52595;51.608;7.216;2023-06-22T03:40:05;18.67;87.18
65836;SHT30;52595;51.608;7.216;2023-06-22T03:42:30;18.67;87.35
65836;SHT30;52595;51.608;7.216;2023-06-22T03:44:56;18.68;87.08
65836;SHT30;52595;51.608;7.216;2023-06-22T03:47:22;18.69;87.18
65836;SHT30;52595;51.608;7.216;2023-06-22T03:49:48;18.68;87.21
65836;SHT30;52595;51.608;7.216;2023-06-22T03:52:13;18.71;87.12
65836;SHT30;52595;51.608;7.216;2023-06-22T03:54:38;18.81;87.14
65836;SHT30;52595;51.608;7.216;2023-06-22T03:57:05;18.83;86.86
65836;SHT30;52595;51.608;7.216;2023-06-22T03:59:31;18.84;86.84
65836;SHT30;52595;51.608;7.216;2023-06-22T04:01:57;18.92;86.38
65836;SHT30;52595;51.608;7.216;2023-06-22T04:04:23;18.99;86.12
65836;SHT30;52595;51.608;7.216;2023-06-22T04:06:48;19.06;85.92
65836;SHT30;52595;51.608;7.216;2023-06-22T04:09:13;19.15;85.93
65836;SHT30;52595;51.608;7.216;2023-06-22T04:11:39;19.22;85.42
65836;SHT30;52595;51.608;7.216;2023-06-22T04:14:04;19.28;85.33
65836;SHT30;52595;51.608;7.216;2023-06-22T04:16:29;19.29;85.27
65836;SHT30;52595;51.608;7.216;2023-06-22T04:18:55;19.32;85.23
65836;SHT30;52595;51.608;7.216;2023-06-22T04:21:20;19.33;85.22
65836;SHT30;52595;51.608;7.216;2023-06-22T04:23:46;19.32;85.23
65836;SHT30;52595;51.608;7.216;2023-06-22T04:26:13;19.33;85.19
65836;SHT30;52595;51.608;7.216;2023-06-22T04:28:39;19.40;84.74
65836;SHT30;52595;51.608;7.216;2023-06-22T04:31:05;19.45;84.94
65836;SHT30;52595;51.608;7.216;2023-06-22T04:33:31;19.49;84.87
65836;SHT30;52595;51.608;7.216;2023-06-22T04:35:57;19.63;84.53
65836;SHT30;52595;51.608;7.216;2023-06-22T04:38:23;19.72;84.16
65836;SHT30;52595;51.608;7.216;2023-06-22T04:40:49;19.73;83.94
65836;SHT30;52595;51.608;7.216;2023-06-22T04:43:15;19.91;83.69
65836;SHT30;52595;51.608;7.216;2023-06-22T04:45:40;20.13;82.96
65836;SHT30;52595;51.608;7.216;2023-06-22T04:48:06;20.21;82.55
65836;SHT30;52595;51.608;7.216;2023-06-22T04:50:32;20.33;82.27
65836;SHT30;52595;51.608;7.216;2023-06-22T04:52:57;20.40;81.80
65836;SHT30;52595;51.608;7.216;2023-06-22T04:55:23;20.58;81.34
65836;SHT30;52595;51.608;7.216;2023-06-22T04:57:51;20.63;81.10
65836;SHT30;52595;51.608;7.216;2023-06-22T05:00:18;20.75;80.59
65836;SHT30;52595;51.608;7.216;2023-06-22T05:02:48;20.75;80.86
65836;SHT30;52595;51.608;7.216;2023-06-22T05:05:14;20.69;81.08
65836;SHT30;52595;51.608;7.216;2023-06-22T05:07:45;20.71;81.06
65836;SHT30;52595;51.608;7.216;2023-06-22T05:10:12;20.74;81.02
65836;SHT30;52595;51.608;7.216;2023-06-22T05:12:39;20.75;81.01
65836;SHT30;52595;51.608;7.216;2023-06-22T05:15:06;20.76;81.14
65836;SHT30;52595;51.608;7.216;2023-06-22T05:17:31;20.79;80.90
65836;SHT30;52595;51.608;7.216;2023-06-22T05:19:57;20.75;80.71
65836;SHT30;52595;51.608;7.216;2023-06-22T05:22:22;20.76;80.96
65836;SHT30;52595;51.608;7.216;2023-06-22T05:24:48;20.72;80.93
65836;SHT30;52595;51.608;7.216;2023-06-22T05:27:14;20.69;81.09
65836;SHT30;52595;51.608;7.216;2023-06-22T05:29:39;20.61;81.40
65836;SHT30;52595;51.608;7.216;2023-06-22T05:32:05;20.59;81.38
65836;SHT30;52595;51.608;7.216;2023-06-22T05:34:31;20.63;81.48
65836;SHT30;52595;51.608;7.216;2023-06-22T05:36:57;20.59;81.62
65836;SHT30;52595;51.608;7.216;2023-06-22T05:39:24;20.56;81.93
65836;SHT30;52595;51.608;7.216;2023-06-22T05:41:50;20.47;82.13
65836;SHT30;52595;51.608;7.216;2023-06-22T05:44:16;20.49;82.09
65836;SHT30;52595;51.608;7.216;2023-06-22T05:46:43;20.48;82.15
65836;SHT30;52595;51.608;7.216;2023-06-22T05:49:13;20.51;82.08
65836;SHT30;52595;51.608;7.216;2023-06-22T05:51:39;20.44;82.49
65836;SHT30;52595;51.608;7.216;2023-06-22T05:54:05;20.38;82.85
65836;SHT30;52595;51.608;7.216;2023-06-22T05:56:30;20.31;83.39
65836;SHT30;52595;51.608;7.216;2023-06-22T05:58:56;20.37;83.15
65836;SHT30;52595;51.608;7.216;2023-06-22T06:01:21;20.38;83.18
65836;SHT30;52595;51.608;7.216;2023-06-22T06:03:47;20.30;83.43
65836;SHT30;52595;51.608;7.216;2023-06-22T06:06:15;20.27;83.79
65836;SHT30;52595;51.608;7.216;2023-06-22T06:08:40;20.37;83.50
65836;SHT30;52595;51.608;7.216;2023-06-22T06:11:06;20.37;83.46
65836;SHT30;52595;51.608;7.216;2023-06-22T06:13:31;20.41;83.47
65836;SHT30;52595;51.608;7.216;2023-06-22T06:15:57;20.48;83.23
65836;SHT30;52595;51.608;7.216;2023-06-22T06:18:22;20.49;82.99
65836;SHT30;52595;51.608;7.216;2023-06-22T06:20:48;20.48;82.85
65836;SHT30;52595;51.608;7.216;2023-06-22T06:23:14;20.45;83.15
65836;SHT30;52595;51.608;7.216;2023-06-22T06:25:39;20.58;82.97
65836;SHT30;52595;51.608;7.216;2023-06-22T06:28:04;20.65;82.61
65836;SHT30;52595;51.608;7.216;2023-06-22T06:30:30;20.68;82.53
65836;SHT30;52595;51.608;7.216;2023-06-22T06:32:56;20.76;82.31
65836;SHT30;52595;51.608;7.216;2023-06-22T06:35:21;20.84;82.00
65836;SHT30;52595;51.608;7.216;2023-06-22T06:37:48;20.82;81.94
65836;SHT30;52595;51.608;7.216;2023-06-22T06:40:15;20.84;81.87
65836;SHT30;52595;51.608;7.216;2023-06-22T06:42:43;20.96;81.70
65836;SHT30;52595;51.608;7.216;2023-06-22T06:45:15;21.02;81.57
65836;SHT30;52595;51.608;7.216;2023-06-22T06:47:41;21.12;81.58
65836;SHT30;52595;51.608;7.216;2023-06-22T06:50:07;20.96;81.44
65836;SHT30;52595;51.608;7.216;2023-06-22T06:52:33;20.88;81.97
65836;SHT30;52595;51.608;7.216;2023-06-22T06:54:59;20.86;82.56
65836;SHT30;52595;51.608;7.216;2023-06-22T06:57:24;20.81;82.53
65836;SHT30;52595;51.608;7.216;2023-06-22T06:59:56;20.89;82.42
65836;SHT30;52595;51.608;7.216;2023-06-22T07:02:23;20.99;82.26
65836;SHT30;52595;51.608;7.216;2023-06-22T07:04:48;21.18;81.95
65836;SHT30;52595;51.608;7.216;2023-06-22T07:07:14;21.38;81.38
65836;SHT30;52595;51.608;7.216;2023-06-22T07:09:39;21.50;80.83
65836;SHT30;52595;51.608;7.216;2023-06-22T07:12:05;21.61;80.35
65836;SHT30;52595;51.608;7.216;2023-06-22T07:14:30;21.59;80.31
65836;SHT30;52595;51.608;7.216;2023-06-22T07:16:57;21.73;79.41
65836;SHT30;52595;51.608;7.216;2023-06-22T07:19:26;21.86;78.91
65836;SHT30;52595;51.608;7.216;2023-06-22T07:21:53;21.80;78.39
65836;SHT30;52595;51.608;7.216;2023-06-22T07:24:21;21.87;78.99
65836;SHT30;52595;51.608;7.216;2023-06-22T07:26:47;22.11;78.57
65836;SHT30;52595;51.608;7.216;2023-06-22T07:29:16;22.22;77.82
65836;SHT30;52595;51.608;7.216;2023-06-22T07:31:41;22.00;78.44
65836;SHT30;52595;51.608;7.216;2023-06-22T07:34:07;22.07;78.32
65836;SHT30;52595;51.608;7.216;2023-06-22T07:36:33;21.97;78.46
65836;SHT30;52595;51.608;7.216;2023-06-22T07:39:01;21.98;78.41
65836;SHT30;52595;51.608;7.216;2023-06-22T07:41:26;21.81;79.20
65836;SHT30;52595;51.608;7.216;2023-06-22T07:43:51;22.03;79.01
65836;SHT30;52595;51.608;7.216;2023-06-22T07:46:17;22.11;78.53
65836;SHT30;52595;51.608;7.216;2023-06-22T07:48:42;22.22;78.43
65836;SHT30;52595;51.608;7.216;2023-06-22T07:51:09;22.34;78.32
65836;SHT30;52595;51.608;7.216;2023-06-22T07:53:36;22.47;77.69
65836;SHT30;52595;51.608;7.216;2023-06-22T07:56:02;22.76;77.18
65836;SHT30;52595;51.608;7.216;2023-06-22T07:58:32;23.03;76.45
65836;SHT30;52595;51.608;7.216;2023-06-22T08:00:57;23.50;75.53
65836;SHT30;52595;51.608;7.216;2023-06-22T08:03:23;23.77;75.99
65836;SHT30;52595;51.608;7.216;2023-06-22T08:05:48;23.64;75.89
65836;SHT30;52595;51.608;7.216;2023-06-22T08:08:14;23.45;76.72
65836;SHT30;52595;51.608;7.216;2023-06-22T08:10:39;23.50;76.81
65836;SHT30;52595;51.608;7.216;2023-06-22T08:13:06;23.49;76.93
65836;SHT30;52595;51.608;7.216;2023-06-22T08:15:31;23.53;77.02
65836;SHT30;52595;51.608;7.216;2023-06-22T08:17:56;23.74;76.02
65836;SHT30;52595;51.608;7.216;2023-06-22T08:20:23;23.83;75.85
65836;SHT30;52595;51.608;7.216;2023-06-22T08:22:48;23.71;76.13
65836;SHT30;52595;51.608;7.216;2023-06-22T08:25:14;23.93;76.13
65836;SHT30;52595;51.608;7.216;2023-06-22T08:27:39;23.84;77.90
65836;SHT30;52595;51.608;7.216;2023-06-22T08:30:06;23.47;79.91
65836;SHT30;52595;51.608;7.216;2023-06-22T08:32:32;23.40;78.72
65836;SHT30;52595;51.608;7.216;2023-06-22T08:34:58;23.53;79.34
65836;SHT30;52595;51.608;7.216;2023-06-22T08:37:23;23.53;78.99
65836;SHT30;52595;51.608;7.216;2023-06-22T08:39:50;23.96;78.48
65836;SHT30;52595;51.608;7.216;2023-06-22T08:42:15;24.26;76.72
65836;SHT30;52595;51.608;7.216;2023-06-22T08:44:41;24.47;76.89
65836;SHT30;52595;51.608;7.216;2023-06-22T08:47:06;24.76;75.62
65836;SHT30;52595;51.608;7.216;2023-06-22T08:49:32;24.80;75.38
65836;SHT30;52595;51.608;7.216;2023-06-22T08:51:57;25.16;75.16
65836;SHT30;52595;51.608;7.216;2023-06-22T08:54:23;25.31;73.48
65836;SHT30;52595;51.608;7.216;2023-06-22T08:56:48;25.33;73.61
65836;SHT30;52595;51.608;7.216;2023-06-22T08:59:13;25.51;73.18
65836;SHT30;52595;51.608;7.216;2023-06-22T09:01:39;25.39;72.29
65836;SHT30;52595;51.608;7.216;2023-06-22T09:04:04;25.37;72.98
65836;SHT30;52595;51.608;7.216;2023-06-22T09:06:31;25.39;72.92
65836;SHT30;52595;51.608;7.216;2023-06-22T09:08:57;25.56;72.22
65836;SHT30;52595;51.608;7.216;2023-06-22T09:11:25;25.53;71.95
65836;SHT30;52595;51.608;7.216;2023-06-22T09:13:50;25.47;72.38
65836;SHT30;52595;51.608;7.216;2023-06-22T09:16:17;25.70;71.19
65836;SHT30;52595;51.608;7.216;2023-06-22T09:18:42;25.54;71.92
65836;SHT30;52595;51.608;7.216;2023-06-22T09:21:08;25.87;71.21
65836;SHT30;52595;51.608;7.216;2023-06-22T09:23:34;25.84;70.44
65836;SHT30;52595;51.608;7.216;2023-06-22T09:25:59;25.91;70.23
65836;SHT30;52595;51.608;7.216;2023-06-22T09:28:24;26.14;69.94
65836;SHT30;52595;51.608;7.216;2023-06-22T09:30:50;26.39;69.54
65836;SHT30;52595;51.608;7.216;2023-06-22T09:33:16;26.69;69.31
65836;SHT30;52595;51.608;7.216;2023-06-22T09:35:41;26.79;68.88
65836;SHT30;52595;51.608;7.216;2023-06-22T09:38:07;26.51;68.64
65836;SHT30;52595;51.608;7.216;2023-06-22T09:40:32;26.51;69.45
65836;SHT30;52595;51.608;7.216;2023-06-22T09:43:05;26.55;68.30
65836;SHT30;52595;51.608;7.216;2023-06-22T09:45:30;26.41;68.71
65836;SHT30;52595;51.608;7.216;2023-06-22T09:47:55;26.44;68.32
65836;SHT30;52595;51.608;7.216;2023-06-22T09:50:21;26.39;68.83
65836;SHT30;52595;51.608;7.216;2023-06-22T09:52:46;26.55;68.06
65836;SHT30;52595;51.608;7.216;2023-06-22T09:55:15;26.73;68.26
65836;SHT30;52595;51.608;7.216;2023-06-22T09:57:41;26.73;68.21
65836;SHT30;52595;51.608;7.216;2023-06-22T10:00:07;26.42;67.75
65836;SHT30;52595;51.608;7.216;2023-06-22T10:02:38;26.45;68.08
65836;SHT30;52595;51.608;7.216;2023-06-22T10:05:03;26.59;68.05
65836;SHT30;52595;51.608;7.216;2023-06-22T10:07:29;26.52;68.25
65836;SHT30;52595;51.608;7.216;2023-06-22T10:09:54;26.31;68.63
65836;SHT30;52595;51.608;7.216;2023-06-22T10:12:20;26.26;68.54
65836;SHT30;52595;51.608;7.216;2023-06-22T10:14:45;26.28;69.07
65836;SHT30;52595;51.608;7.216;2023-06-22T10:17:10;26.60;68.00
65836;SHT30;52595;51.608;7.216;2023-06-22T10:19:36;26.90;67.38
65836;SHT30;52595;51.608;7.216;2023-06-22T10:22:03;26.95;66.97
65836;SHT30;52595;51.608;7.216;2023-06-22T10:24:29;27.43;66.07
65836;SHT30;52595;51.608;7.216;2023-06-22T10:26:54;27.80;65.24
65836;SHT30;52595;51.608;7.216;2023-06-22T10:29:20;27.94;64.73
65836;SHT30;52595;51.608;7.216;2023-06-22T10:31:46;28.22;63.84
65836;SHT30;52595;51.608;7.216;2023-06-22T10:34:11;28.52;63.19
65836;SHT30;52595;51.608;7.216;2023-06-22T10:36:38;28.38;63.15
65836;SHT30;52595;51.608;7.216;2023-06-22T10:39:03;28.28;63.34
65836;SHT30;52595;51.608;7.216;2023-06-22T10:41:29;28.66;62.78
65836;SHT30;52595;51.608;7.216;2023-06-22T10:43:56;28.56;62.50
65836;SHT30;52595;51.608;7.216;2023-06-22T10:46:21;28.77;62.22
65836;SHT30;52595;51.608;7.216;2023-06-22T10:48:46;29.24;61.96
65836;SHT30;52595;51.608;7.216;2023-06-22T10:51:12;29.46;60.61
65836;SHT30;52595;51.608;7.216;2023-06-22T10:53:37;29.43;60.75
65836;SHT30;52595;51.608;7.216;2023-06-22T10:56:03;29.61;60.90
65836;SHT30;52595;51.608;7.216;2023-06-22T10:58:28;29.46;61.22
65836;SHT30;52595;51.608;7.216;2023-06-22T11:00:53;28.53;62.67
65836;SHT30;52595;51.608;7.216;2023-06-22T11:03:19;28.49;63.06
65836;SHT30;52595;51.608;7.216;2023-06-22T11:05:44;28.28;63.44
65836;SHT30;52595;51.608;7.216;2023-06-22T11:08:11;28.18;63.73
65836;SHT30;52595;51.608;7.216;2023-06-22T11:10:36;28.29;63.65
65836;SHT30;52595;51.608;7.216;2023-06-22T11:13:01;27.97;64.07
65836;SHT30;52595;51.608;7.216;2023-06-22T11:15:29;27.84;64.85
65836;SHT30;52595;51.608;7.216;2023-06-22T11:17:54;27.58;65.72
65836;SHT30;52595;51.608;7.216;2023-06-22T11:20:20;27.26;66.37
65836;SHT30;52595;51.608;7.216;2023-06-22T11:22:45;27.07;66.96
65836;SHT30;52595;51.608;7.216;2023-06-22T11:25:10;26.90;67.87
65836;SHT30;52595;51.608;7.216;2023-06-22T11:27:37;26.95;67.69
65836;SHT30;52595;51.608;7.216;2023-06-22T11:30:03;26.66;68.21
65836;SHT30;52595;51.608;7.216;2023-06-22T11:32:29;26.53;68.78
65836;SHT30;52595;51.608;7.216;2023-06-22T11:34:54;26.45;69.90
65836;SHT30;52595;51.608;7.216;2023-06-22T11:37:19;26.32;70.80
65836;SHT30;52595;51.608;7.216;2023-06-22T11:39:45;26.14;71.99
65836;SHT30;52595;51.608;7.216;2023-06-22T11:42:10;25.80;74.19
65836;SHT30;52595;51.608;7.216;2023-06-22T11:44:36;25.43;75.96
65836;SHT30;52595;51.608;7.216;2023-06-22T11:47:01;25.06;77.16
65836;SHT30;52595;51.608;7.216;2023-06-22T11:49:29;24.90;77.77
65836;SHT30;52595;51.608;7.216;2023-06-22T11:51:55;24.66;79.76
65836;SHT30;52595;51.608;7.216;2023-06-22T11:54:20;24.38;80.88
65836;SHT30;52595;51.608;7.216;2023-06-22T11:56:45;24.08;82.21
65836;SHT30;52595;51.608;7.216;2023-06-22T11:59:11;23.49;86.15
65836;SHT30;52595;51.608;7.216;2023-06-22T12:01:36;23.05;91.34
65836;SHT30;52595;51.608;7.216;2023-06-22T12:04:02;22.66;93.97
65836;SHT30;52595;51.608;7.216;2023-06-22T12:06:31;22.38;94.21
65836;SHT30;52595;51.608;7.216;2023-06-22T12:08:57;22.17;95.78
65836;SHT30;52595;51.608;7.216;2023-06-22T12:11:22;22.03;97.43
65836;SHT30;52595;51.608;7.216;2023-06-22T12:13:47;21.89;99.28
65836;SHT30;52595;51.608;7.216;2023-06-22T12:16:13;21.77;99.99
65836;SHT30;52595;51.608;7.216;2023-06-22T12:18:38;21.69;99.99
65836;SHT30;52595;51.608;7.216;2023-06-22T12:21:04;21.66;99.99
65836;SHT30;52595;51.608;7.216;2023-06-22T12:23:29;21.54;99.50
65836;SHT30;52595;51.608;7.216;2023-06-22T12:25:54;21.56;99.71
65836;SHT30;52595;51.608;7.216;2023-06-22T12:28:20;21.54;99.05
65836;SHT30;52595;51.608;7.216;2023-06-22T12:30:45;21.43;99.04
65836;SHT30;52595;51.608;7.216;2023-06-22T12:33:11;21.51;99.57
65836;SHT30;52595;51.608;7.216;2023-06-22T12:35:36;21.50;99.72
65836;SHT30;52595;51.608;7.216;2023-06-22T12:38:01;21.53;99.99
65836;SHT30;52595;51.608;7.216;2023-06-22T12:40:28;21.49;99.47
65836;SHT30;52595;51.608;7.216;2023-06-22T12:42:53;21.50;99.64
65836;SHT30;52595;51.608;7.216;2023-06-22T12:45:18;21.47;99.92
65836;SHT30;52595;51.608;7.216;2023-06-22T12:47:46;21.54;99.59
65836;SHT30;52595;51.608;7.216;2023-06-22T12:50:12;21.54;99.17
65836;SHT30;52595;51.608;7.216;2023-06-22T12:52:37;21.54;99.40
65836;SHT30;52595;51.608;7.216;2023-06-22T12:55:06;21.49;98.77
65836;SHT30;52595;51.608;7.216;2023-06-22T12:57:32;21.40;98.94
65836;SHT30;52595;51.608;7.216;2023-06-22T12:59:58;21.40;98.79
65836;SHT30;52595;51.608;7.216;2023-06-22T13:02:25;21.49;98.86
65836;SHT30;52595;51.608;7.216;2023-06-22T13:04:50;21.69;99.05
65836;SHT30;52595;51.608;7.216;2023-06-22T13:07:16;21.70;97.99
65836;SHT30;52595;51.608;7.216;2023-06-22T13:09:41;21.67;98.41
65836;SHT30;52595;51.608;7.216;2023-06-22T13:12:07;21.64;98.37
65836;SHT30;52595;51.608;7.216;2023-06-22T13:14:33;21.59;98.09
65836;SHT30;52595;51.608;7.216;2023-06-22T13:16:58;21.57;98.50
65836;SHT30;52595;51.608;7.216;2023-06-22T13:19:23;21.54;98.97
65836;SHT30;52595;51.608;7.216;2023-06-22T13:21:49;21.51;99.00
65836;SHT30;52595;51.608;7.216;2023-06-22T13:24:15;21.39;99.52
65836;SHT30;52595;51.608;7.216;2023-06-22T13:26:41;21.35;99.75
65836;SHT30;52595;51.608;7.216;2023-06-22T13:29:07;21.35;99.62
65836;SHT30;52595;51.608;7.216;2023-06-22T13:31:32;21.43;99.99
65836;SHT30;52595;51.608;7.216;2023-06-22T13:33:59;21.50;99.99
65836;SHT30;52595;51.608;7.216;2023-06-22T13:36:26;21.53;99.99
65836;SHT30;52595;51.608;7.216;2023-06-22T13:38:51;21.53;99.62
65836;SHT30;52595;51.608;7.216;2023-06-22T13:41:17;21.60;99.99
65836;SHT30;52595;51.608;7.216;2023-06-22T13:43:42;21.54;99.99
65836;SHT30;52595;51.608;7.216;2023-06-22T13:46:08;21.51;99.99
65836;SHT30;52595;51.608;7.216;2023-06-22T13:48:33;21.53;99.99
65836;SHT30;52595;51.608;7.216;2023-06-22T13:50:59;21.67;99.99
65836;SHT30;52595;51.608;7.216;2023-06-22T13:53:25;21.89;99.90
65836;SHT30;52595;51.608;7.216;2023-06-22T13:55:51;21.91;98.69
65836;SHT30;52595;51.608;7.216;2023-06-22T13:58:17;21.97;99.71
65836;SHT30;52595;51.608;7.216;2023-06-22T14:00:45;21.97;99.79
65836;SHT30;52595;51.608;7.216;2023-06-22T14:03:14;21.83;99.13
65836;SHT30;52595;51.608;7.216;2023-06-22T14:05:41;21.94;99.78
65836;SHT30;52595;51.608;7.216;2023-06-22T14:08:07;22.00;98.96
65836;SHT30;52595;51.608;7.216;2023-06-22T14:10:32;21.93;99.07
65836;SHT30;52595;51.608;7.216;2023-06-22T14:12:58;21.89;99.14
65836;SHT30;52595;51.608;7.216;2023-06-22T14:15:25;22.04;99.38
65836;SHT30;52595;51.608;7.216;2023-06-22T14:17:51;22.08;99.08
65836;SHT30;52595;51.608;7.216;2023-06-22T14:20:16;22.17;99.59
65836;SHT30;52595;51.608;7.216;2023-06-22T14:22:42;22.21;99.10
65836;SHT30;52595;51.608;7.216;2023-06-22T14:25:07;22.25;98.43
65836;SHT30;52595;51.608;7.216;2023-06-22T14:27:33;22.14;98.60
65836;SHT30;52595;51.608;7.216;2023-06-22T14:29:58;22.17;98.84
65836;SHT30;52595;51.608;7.216;2023-06-22T14:32:24;22.35;99.37
65836;SHT30;52595;51.608;7.216;2023-06-22T14:34:50;22.52;98.40
65836;SHT30;52595;51.608;7.216;2023-06-22T14:37:15;22.62;96.94
65836;SHT30;52595;51.608;7.216;2023-06-22T14:39:41;23.02;98.06
65836;SHT30;52595;51.608;7.216;2023-06-22T14:42:07;23.16;95.62
65836;SHT30;52595;51.608;7.216;2023-06-22T14:44:33;23.23;96.35
65836;SHT30;52595;51.608;7.216;2023-06-22T14:46:58;23.03;94.68
65836;SHT30;52595;51.608;7.216;2023-06-22T14:49:24;23.12;96.62
65836;SHT30;52595;51.608;7.216;2023-06-22T14:51:49;23.15;96.96
65836;SHT30;52595;51.608;7.216;2023-06-22T14:54:15;22.99;96.82
65836;SHT30;52595;51.608;7.216;2023-06-22T14:56:40;22.69;97.57
65836;SHT30;52595;51.608;7.216;2023-06-22T14:59:06;22.55;96.83
65836;SHT30;52595;51.608;7.216;2023-06-22T15:01:31;22.51;98.22
65836;SHT30;52595;51.608;7.216;2023-06-22T15:03:57;22.31;95.92
65836;SHT30;52595;51.608;7.216;2023-06-22T15:06:22;22.41;96.79
65836;SHT30;52595;51.608;7.216;2023-06-22T15:08:48;22.35;97.47
65836;SHT30;52595;51.608;7.216;2023-06-22T15:11:13;22.18;97.43
65836;SHT30;52595;51.608;7.216;2023-06-22T15:13:40;22.04;97.48
65836;SHT30;52595;51.608;7.216;2023-06-22T15:16:06;21.93;97.86
65836;SHT30;52595;51.608;7.216;2023-06-22T15:18:31;21.79;98.22
65836;SHT30;52595;51.608;7.216;2023-06-22T15:21:00;21.70;99.26
65836;SHT30;52595;51.608;7.216;2023-06-22T15:23:27;21.79;99.50
65836;SHT30;52595;51.608;7.216;2023-06-22T15:25:54;22.05;99.19
65836;SHT30;52595;51.608;7.216;2023-06-22T15:28:20;22.08;98.93